Time;durP1;ratioP1;P1;durP2;ratioP2;P2;SDS_P1;SDS_P2;PMS_P1;PMS_P2;Temp;Humidity;BMP_temperature;BMP_pressure;BME280_temperature;BME280_humidity;BME280_pressure;Samples;Min_cycle;Max_cycle;Signal;HPM_P1;HPM_P2
2022/09/14 00:01:31;;;;;;;10.07;7.60;;;;;;;17.65;70.69;99348.16;4846910;28;96964;-87
2022/09/14 00:03:59;;;;;;;9.77;7.03;;;;;;;17.57;71.14;99353.25;4842840;29;96849;-86
2022/09/14 00:06:25;;;;;;;13.35;7.38;;;;;;;17.59;71.11;99346.00;4834678;28;101144;-86
2022/09/14 00:08:52;;;;;;;10.32;7.85;;;;;;;17.48;71.44;99337.19;4856373;28;98217;-86
2022/09/14 00:11:19;;;;;;;11.15;8.13;;;;;;;17.51;71.27;99355.53;4847168;28;96901;-86
2022/09/14 00:13:46;;;;;;;8.40;7.13;;;;;;;17.53;71.54;99349.13;4857205;28;97132;-88
2022/09/14 00:16:15;;;;;;;15.52;8.65;;;;;;;17.38;71.46;99335.25;4851421;28;101255;-86
2022/09/14 00:18:42;;;;;;;11.80;8.88;;;;;;;17.43;71.79;99338.41;4835783;29;101289;-86
2022/09/14 00:21:09;;;;;;;11.93;8.13;;;;;;;17.36;71.69;99331.03;4844551;28;97012;-87
2022/09/14 00:23:36;;;;;;;9.95;7.65;;;;;;;17.32;71.63;99325.13;4857497;29;96823;-86
2022/09/14 00:26:10;;;;;;;10.93;7.82;;;;;;;17.46;71.05;99332.03;4841425;29;101471;-86
2022/09/14 00:28:40;;;;;;;9.88;7.35;;;;;;;17.45;71.00;99337.44;4839592;28;99624;-87
2022/09/14 00:31:07;;;;;;;12.13;7.07;;;;;;;17.47;71.19;99336.34;4845398;29;96941;-86
2022/09/14 00:33:33;;;;;;;9.77;6.57;;;;;;;17.35;71.17;99327.53;4876192;28;97012;-86
2022/09/14 00:36:13;;;;;;;9.45;6.90;;;;;;;17.40;71.06;99321.91;4829935;28;99647;-86
2022/09/14 00:38:39;;;;;;;12.30;6.97;;;;;;;17.51;71.00;99339.59;4842819;28;101627;-86
2022/09/14 00:41:06;;;;;;;8.80;6.88;;;;;;;17.53;71.05;99335.03;4828442;28;96859;-85
2022/09/14 00:43:33;;;;;;;14.38;6.90;;;;;;;17.56;70.42;99340.09;4837088;28;98132;-85
2022/09/14 00:46:00;;;;;;;10.85;5.90;;;;;;;17.50;70.49;99324.66;4836096;28;101842;-86
2022/09/14 00:48:26;;;;;;;8.60;6.18;;;;;;;17.57;70.84;99337.34;4857490;28;99771;-86
2022/09/14 00:50:52;;;;;;;9.68;6.00;;;;;;;17.52;70.45;99330.69;4827870;28;97318;-86
2022/09/14 00:53:18;;;;;;;10.02;5.45;;;;;;;17.53;70.75;99341.19;4828611;28;96869;-86
2022/09/14 00:55:44;;;;;;;7.45;5.65;;;;;;;17.62;70.33;99344.91;4837254;28;101605;-86
2022/09/14 00:58:10;;;;;;;8.35;6.28;;;;;;;17.65;70.07;99337.56;4846942;28;101331;-86
2022/09/14 01:00:35;;;;;;;7.88;5.75;;;;;;;17.67;70.29;99340.09;4860053;28;98088;-86
2022/09/14 01:03:01;;;;;;;10.30;5.68;;;;;;;17.66;70.25;99346.38;4836186;29;97486;-87
2022/09/14 01:06:01;;;;;;;7.25;5.82;;;;;;;17.68;70.28;99335.63;4857182;28;98278;-86
2022/09/14 01:08:57;;;;;;;9.30;5.43;;;;;;;17.58;70.81;99323.09;4843821;28;99589;-87
2022/09/14 01:11:59;;;;;;;8.88;5.90;;;;;;;17.61;70.43;99324.66;4866584;28;97000;-86
2022/09/14 01:14:57;;;;;;;8.15;5.53;;;;;;;17.66;70.70;99335.78;4849912;28;96834;-86
2022/09/14 01:17:49;;;;;;;12.23;5.28;;;;;;;17.54;70.67;99334.06;4788145;28;97660;-86
2022/09/14 01:20:32;;;;;;;9.50;6.20;;;;;;;17.60;70.57;99342.41;4839762;28;101696;-87
2022/09/14 01:23:13;;;;;;;10.10;5.35;;;;;;;17.62;70.21;99345.75;4836803;28;97874;-87
2022/09/14 01:25:44;;;;;;;;;;;;;;;17.61;70.61;99344.09;4832284;28;96776;-86
2022/09/14 01:28:15;;;;;;;7.90;5.70;;;;;;;17.51;70.21;99321.91;4845996;28;101334;-87
2022/09/14 01:30:41;;;;;;;5.90;5.30;;;;;;;17.65;69.98;99347.31;4840986;28;101709;-85
2022/09/14 01:33:31;;;;;;;7.38;5.40;;;;;;;17.56;70.34;99338.28;4828181;28;96750;-87
2022/09/14 01:35:58;;;;;;;9.18;6.03;;;;;;;17.57;70.48;99341.78;4827552;28;96901;-86
2022/09/14 01:38:29;;;;;;;7.88;5.55;;;;;;;17.57;70.73;99339.13;4828015;28;101651;-85
2022/09/14 01:40:56;;;;;;;7.47;4.90;;;;;;;17.56;70.80;99342.75;4859058;28;98467;-86
2022/09/14 01:43:35;;;;;;;10.30;5.72;;;;;;;17.56;70.83;99324.19;4845161;28;96762;-86
2022/09/14 01:46:12;;;;;;;7.25;5.47;;;;;;;17.49;70.98;99329.13;4859789;28;97133;-86
2022/09/14 01:48:41;;;;;;;6.30;5.50;;;;;;;17.52;70.75;99323.59;4829013;28;101841;-86
2022/09/14 01:51:17;;;;;;;7.90;5.60;;;;;;;17.52;70.54;99315.63;4858788;28;101205;-86
2022/09/14 01:53:46;;;;;;;7.40;5.57;;;;;;;17.46;70.68;99300.19;4817721;28;97130;-86
2022/09/14 01:56:14;;;;;;;9.25;5.90;;;;;;;17.57;70.30;99315.25;4826249;29;96953;-86
2022/09/14 01:58:59;;;;;;;12.38;5.72;;;;;;;17.46;70.70;99296.69;4860318;28;98193;-85
2022/09/14 02:01:31;;;;;;;7.25;5.65;;;;;;;17.52;70.66;99307.66;4861599;28;100500;-85
2022/09/14 02:04:00;;;;;;;9.38;5.80;;;;;;;17.46;70.84;99304.66;4841645;28;96737;-85
2022/09/14 02:06:46;;;;;;;5.85;5.25;;;;;;;17.50;71.09;99314.06;4867956;28;96930;-86
2022/09/14 02:09:16;;;;;;;8.65;5.40;;;;;;;17.56;70.87;99310.91;4858378;28;101190;-86
2022/09/14 02:11:42;;;;;;;10.60;6.32;;;;;;;17.59;70.60;99308.00;4844249;28;98552;-85
2022/09/14 02:14:07;;;;;;;10.30;6.50;;;;;;;17.57;70.59;99300.19;4844512;28;96899;-86
2022/09/14 02:16:34;;;;;;;10.73;5.75;;;;;;;17.59;70.59;99300.91;4841774;28;96999;-86
2022/09/14 02:19:00;;;;;;;8.48;5.72;;;;;;;17.58;70.66;99299.22;4858623;28;97538;-85
2022/09/14 02:21:28;;;;;;;9.73;6.38;;;;;;;17.55;71.38;99309.22;4826337;28;100215;-85
2022/09/14 02:23:54;;;;;;;12.68;6.47;;;;;;;17.57;70.87;99301.97;4846537;28;97226;-85
2022/09/14 02:26:20;;;;;;;10.35;6.03;;;;;;;17.62;71.30;99305.97;4861994;28;97109;-86
2022/09/14 02:28:46;;;;;;;11.15;6.22;;;;;;;17.63;70.93;99299.69;4851137;29;101585;-87
2022/09/14 02:31:37;;;;;;;9.18;5.80;;;;;;;17.60;71.27;99294.63;4818985;28;101041;-85
2022/09/14 02:34:37;;;;;;;7.97;6.63;;;;;;;17.61;71.01;99296.31;4843730;29;96933;-86
2022/09/14 02:37:18;;;;;;;7.28;6.25;;;;;;;17.54;70.82;99289.81;4874578;28;96984;-85
2022/09/14 02:39:46;;;;;;;;;;;;;;;17.60;71.14;99304.41;4843530;28;100357;-86
2022/09/14 02:42:33;;;;;;;8.77;6.15;;;;;;;17.56;71.17;99301.13;4874458;28;98078;-85
2022/09/14 02:45:03;;;;;;;8.30;5.95;;;;;;;17.54;71.35;99304.88;4863777;28;97131;-85
2022/09/14 02:47:43;;;;;;;8.27;6.07;;;;;;;17.52;70.67;99289.09;4849689;28;96822;-85
2022/09/14 02:50:18;;;;;;;9.80;6.13;;;;;;;17.54;71.79;99299.56;4845220;28;101637;-85
2022/09/14 02:53:10;;;;;;;9.15;6.07;;;;;;;17.52;71.58;99290.91;4876808;28;99680;-86
2022/09/14 02:55:41;;;;;;;8.68;5.65;;;;;;;17.52;71.82;99291.75;4877730;28;96793;-86
2022/09/14 02:58:09;;;;;;;8.07;5.85;;;;;;;17.51;71.91;99299.81;4855237;28;97298;-86
2022/09/14 03:00:40;;;;;;;7.18;5.93;;;;;;;17.47;71.56;99291.25;4838709;28;100706;-86
2022/09/14 03:03:08;;;;;;;10.35;6.15;;;;;;;17.43;71.98;99284.53;4847270;29;98005;-86
2022/09/14 03:05:34;;;;;;;13.57;6.18;;;;;;;17.51;71.83;99294.50;4830569;29;96809;-85
2022/09/14 03:08:00;;;;;;;7.25;6.35;;;;;;;17.49;72.44;99301.75;4842101;28;96849;-85
2022/09/14 03:10:26;;;;;;;7.38;5.38;;;;;;;17.54;71.91;99292.47;4852497;28;101725;-85
2022/09/14 03:12:51;;;;;;;6.15;5.55;;;;;;;17.59;71.50;99286.78;4848019;28;101171;-85
2022/09/14 03:15:17;;;;;;;9.32;6.10;;;;;;;17.60;71.52;99285.84;4844457;28;97406;-86
2022/09/14 03:17:49;;;;;;;11.15;6.07;;;;;;;17.54;71.89;99291.59;4864458;28;96892;-85
2022/09/14 03:20:18;;;;;;;6.97;5.63;;;;;;;17.45;71.95;99282.56;4855140;29;101538;-86
2022/09/14 03:22:44;;;;;;;10.07;7.15;;;;;;;17.47;72.32;99290.41;4853472;28;97537;-86
2022/09/14 03:25:10;;;;;;;7.40;5.78;;;;;;;17.40;72.02;99260.88;4837852;29;98018;-85
2022/09/14 03:27:35;;;;;;;9.93;6.10;;;;;;;17.56;71.65;99287.03;4869180;28;96779;-86
2022/09/14 03:30:01;;;;;;;9.77;6.13;;;;;;;17.49;71.98;99291.16;4827981;28;100589;-85
2022/09/14 03:32:27;;;;;;;11.48;6.15;;;;;;;17.48;71.91;99284.13;4852059;28;101137;-86
2022/09/14 03:34:52;;;;;;;12.77;6.43;;;;;;;17.39;72.31;99265.34;4856126;28;96820;-87
2022/09/14 03:37:17;;;;;;;7.53;5.88;;;;;;;17.50;72.12;99279.56;4840723;28;97069;-85
2022/09/14 03:39:43;;;;;;;10.43;6.53;;;;;;;17.42;71.91;99269.53;4851966;28;101247;-85
2022/09/14 03:42:09;;;;;;;11.13;6.63;;;;;;;17.36;71.96;99268.22;4835918;28;101394;-85
2022/09/14 03:44:34;;;;;;;12.07;6.30;;;;;;;17.34;72.64;99272.81;4825127;28;96657;-85
2022/09/14 03:47:00;;;;;;;8.30;6.97;;;;;;;17.33;72.52;99280.88;4827083;28;96995;-87
2022/09/14 03:49:25;;;;;;;9.65;7.00;;;;;;;17.14;72.84;99239.06;4845603;28;101113;-85
2022/09/14 03:51:51;;;;;;;11.98;7.60;;;;;;;17.33;72.80;99271.13;4844394;29;101305;-85
2022/09/14 03:54:16;;;;;;;8.38;6.45;;;;;;;17.24;72.96;99261.22;4844779;28;96741;-85
2022/09/14 03:56:42;;;;;;;11.77;6.90;;;;;;;17.18;73.50;99274.97;4837186;28;96842;-85
2022/09/14 03:59:08;;;;;;;9.45;6.28;;;;;;;17.10;73.67;99270.25;4843181;28;101564;-86
2022/09/14 04:01:34;;;;;;;9.52;6.35;;;;;;;17.20;73.40;99278.38;4863558;28;97111;-86
2022/09/14 04:04:00;;;;;;;10.18;6.97;;;;;;;17.17;73.58;99281.25;4859347;28;97168;-85
2022/09/14 04:06:26;;;;;;;7.20;6.38;;;;;;;17.17;73.33;99286.56;4846977;28;97509;-85
2022/09/14 04:08:51;;;;;;;10.90;7.20;;;;;;;17.15;73.44;99280.53;4841405;28;99744;-85
2022/09/14 04:11:21;;;;;;;8.07;6.45;;;;;;;17.13;73.34;99277.13;4836821;28;101262;-85
2022/09/14 04:13:47;;;;;;;11.75;7.43;;;;;;;17.17;73.54;99275.94;4866858;28;96834;-85
2022/09/14 04:16:14;;;;;;;13.90;7.72;;;;;;;17.07;73.45;99259.06;4832510;28;97226;-85
2022/09/14 04:18:40;;;;;;;11.88;7.47;;;;;;;17.10;73.63;99272.91;4845290;28;100516;-85
2022/09/14 04:21:14;;;;;;;11.23;7.95;;;;;;;17.03;73.57;99252.31;4830567;28;100811;-86
2022/09/14 04:23:40;;;;;;;11.77;7.60;;;;;;;16.86;73.98;99240.34;4838032;28;98074;-86
2022/09/14 04:26:11;;;;;;;11.00;8.15;;;;;;;17.11;73.39;99265.81;4828602;28;97107;-85
2022/09/14 04:28:36;;;;;;;13.80;8.25;;;;;;;17.08;73.58;99269.56;4836511;28;101315;-84
2022/09/14 04:31:02;;;;;;;9.10;7.53;;;;;;;17.05;73.56;99275.09;4845740;28;100755;-86
2022/09/14 04:33:32;;;;;;;11.85;7.93;;;;;;;17.05;73.59;99258.34;4859077;28;96715;-85
2022/09/14 04:36:07;;;;;;;14.67;8.60;;;;;;;16.99;73.75;99262.31;4834813;29;96767;-85
2022/09/14 04:38:33;;;;;;;13.10;9.20;;;;;;;17.02;73.95;99262.06;4840635;28;101379;-85
2022/09/14 04:40:59;;;;;;;13.65;8.38;;;;;;;17.13;73.52;99279.78;4842455;28;101267;-85
2022/09/14 04:43:26;;;;;;;12.45;7.85;;;;;;;17.09;73.74;99275.69;4842932;28;97280;-86
2022/09/14 04:45:52;;;;;;;12.68;7.47;;;;;;;17.05;74.07;99277.75;4828328;28;96975;-85
2022/09/14 04:48:18;;;;;;;9.05;7.97;;;;;;;16.93;74.54;99265.44;4848537;28;100765;-85
2022/09/14 04:50:44;;;;;;;13.00;7.90;;;;;;;16.94;74.33;99265.31;4836604;28;101300;-85
2022/09/14 04:53:10;;;;;;;13.55;8.00;;;;;;;16.99;74.12;99280.88;4828485;28;96966;-85
2022/09/14 04:55:36;;;;;;;13.27;8.75;;;;;;;16.97;74.23;99294.22;4830068;28;96860;-85
2022/09/14 04:58:01;;;;;;;9.60;8.32;;;;;;;16.94;74.47;99291.81;4834220;29;101367;-85
2022/09/14 05:00:27;;;;;;;13.75;8.38;;;;;;;16.97;74.27;99280.13;4850753;28;100581;-85
2022/09/14 05:02:52;;;;;;;13.90;8.90;;;;;;;16.88;74.56;99276.38;4854599;28;97050;-85
2022/09/14 05:05:18;;;;;;;15.70;9.25;;;;;;;17.03;74.19;99284.97;4860758;28;96830;-85
2022/09/14 05:07:43;;;;;;;13.77;8.18;;;;;;;17.11;73.92;99287.03;4826903;28;101474;-85
2022/09/14 05:10:09;;;;;;;16.42;9.02;;;;;;;17.07;74.24;99283.75;4881691;28;98106;-86
2022/09/14 05:12:34;;;;;;;10.73;7.30;;;;;;;17.13;73.76;99280.66;4825710;29;98724;-85
2022/09/14 05:15:00;;;;;;;10.85;8.52;;;;;;;17.07;74.03;99278.44;4837430;28;97914;-86
2022/09/14 05:17:26;;;;;;;14.00;7.75;;;;;;;17.18;74.08;99290.88;4842735;28;98012;-84
2022/09/14 05:19:51;;;;;;;13.93;8.35;;;;;;;17.15;73.68;99273.41;4850243;28;101405;-85
2022/09/14 05:22:17;;;;;;;10.23;7.75;;;;;;;17.23;73.85;99290.53;4838089;28;97540;-85
2022/09/14 05:24:42;;;;;;;14.48;8.00;;;;;;;17.23;73.46;99278.13;4845985;28;97155;-85
2022/09/14 05:27:08;;;;;;;15.55;8.38;;;;;;;17.33;73.29;99278.22;4823223;28;101784;-86
2022/09/14 05:29:33;;;;;;;15.98;7.72;;;;;;;17.23;73.81;99291.38;4843630;28;101675;-86
2022/09/14 05:31:59;;;;;;;11.75;7.55;;;;;;;17.25;74.13;99289.47;4858062;28;96886;-86
2022/09/14 05:34:24;;;;;;;11.38;7.50;;;;;;;17.32;73.79;99284.50;4848675;28;97817;-87
2022/09/14 05:36:50;;;;;;;11.23;7.88;;;;;;;17.35;73.49;99297.53;4840534;28;101557;-86
2022/09/14 05:39:15;;;;;;;10.15;7.57;;;;;;;17.35;73.55;99282.47;4828355;28;101287;-88
2022/09/14 05:41:41;;;;;;;11.68;8.18;;;;;;;17.40;73.47;99292.72;4844730;28;97277;-87
2022/09/14 05:44:06;;;;;;;13.40;7.75;;;;;;;17.39;73.25;99297.19;4828992;28;97044;-87
2022/09/14 05:46:32;;;;;;;10.15;7.45;;;;;;;17.35;73.82;99292.22;4827719;28;100138;-87
2022/09/14 05:48:58;;;;;;;12.18;7.43;;;;;;;17.37;73.78;99290.31;4826518;28;101038;-84
2022/09/14 05:51:24;;;;;;;10.98;7.60;;;;;;;17.36;73.49;99280.66;4840565;28;96907;-84
2022/09/14 05:53:52;;;;;;;16.30;9.27;;;;;;;17.46;73.46;99286.09;4842879;28;96787;-84
2022/09/14 05:56:19;;;;;;;12.55;7.70;;;;;;;17.49;73.51;99273.41;4859486;28;101782;-84
2022/09/14 05:58:45;;;;;;;14.05;7.88;;;;;;;17.51;73.81;99278.59;4845844;28;101323;-84
2022/09/14 06:01:17;;;;;;;16.15;8.00;;;;;;;17.45;73.61;99263.16;4850431;29;97403;-83
2022/09/14 06:03:43;;;;;;;20.67;8.25;;;;;;;17.56;73.97;99277.25;4840455;28;97082;-83
2022/09/14 06:06:10;;;;;;;14.65;7.45;;;;;;;17.62;73.95;99283.88;4827032;29;101175;-83
2022/09/14 06:08:36;;;;;;;11.52;7.55;;;;;;;17.64;73.83;99271.34;4835090;28;97535;-84
2022/09/14 06:11:07;;;;;;;13.65;7.78;;;;;;;17.73;73.53;99283.03;4845246;28;97169;-85
2022/09/14 06:13:33;;;;;;;12.77;8.93;;;;;;;17.72;73.72;99284.03;4829258;29;97316;-85
2022/09/14 06:16:04;;;;;;;13.20;7.75;;;;;;;17.79;73.46;99277.28;4828297;28;100901;-86
2022/09/14 06:18:34;;;;;;;14.27;8.15;;;;;;;17.85;73.20;99277.63;4804512;29;101124;-85
2022/09/14 06:21:00;;;;;;;14.68;8.07;;;;;;;17.72;73.21;99255.66;4824588;28;97920;-85
2022/09/14 06:23:27;;;;;;;12.75;8.00;;;;;;;17.92;72.64;99270.03;4822393;29;96978;-83
2022/09/14 06:25:57;;;;;;;13.02;7.82;;;;;;;18.06;72.62;99279.50;4826603;29;101568;-84
2022/09/14 06:28:23;;;;;;;14.60;9.27;;;;;;;18.16;72.40;99279.59;4840483;28;101765;-88
2022/09/14 06:30:49;;;;;;;12.82;8.27;;;;;;;18.24;71.91;99285.97;4827981;29;97007;-85
2022/09/14 06:33:15;;;;;;;13.63;8.50;;;;;;;18.22;72.04;99273.78;4826914;29;97057;-85
2022/09/14 06:35:41;;;;;;;16.00;8.90;;;;;;;18.25;71.92;99271.72;4805267;29;100944;-85
2022/09/14 06:38:07;;;;;;;14.55;9.15;;;;;;;18.46;71.50;99274.41;4823272;29;100815;-84
2022/09/14 06:40:33;;;;;;;14.18;8.57;;;;;;;18.53;71.31;99275.59;4806532;29;98134;-84
2022/09/14 06:43:01;;;;;;;10.98;8.50;;;;;;;18.66;70.89;99275.41;4838792;29;96967;-83
2022/09/14 06:45:31;;;;;;;13.85;8.68;;;;;;;18.80;70.63;99284.06;4823981;29;101278;-83
2022/09/14 06:47:57;;;;;;;12.40;7.88;;;;;;;18.82;70.46;99287.41;4807740;29;101681;-84
2022/09/14 06:50:23;;;;;;;11.52;7.50;;;;;;;18.77;70.63;99278.03;4823797;29;96828;-91
2022/09/14 06:52:48;;;;;;;13.02;6.93;;;;;;;18.75;70.56;99279.97;4807018;29;97381;-84
2022/09/14 06:55:14;;;;;;;12.35;7.88;;;;;;;18.77;70.51;99295.78;4821330;29;97492;-84
2022/09/14 06:57:43;;;;;;;11.10;7.25;;;;;;;18.81;70.25;99283.09;4824640;28;100436;-89
2022/09/14 07:00:10;;;;;;;12.18;7.88;;;;;;;18.77;70.21;99285.16;4812455;29;97390;-88
2022/09/14 07:02:36;;;;;;;14.85;7.45;;;;;;;18.85;70.33;99279.19;4819433;29;97200;-89
2022/09/14 07:05:01;;;;;;;8.02;6.72;;;;;;;18.60;70.07;99240.53;4830708;29;98087;-89
2022/09/14 07:07:27;;;;;;;9.50;7.15;;;;;;;18.78;69.77;99260.25;4832269;29;100186;-87
2022/09/14 07:09:52;;;;;;;13.45;6.97;;;;;;;18.85;69.66;99269.41;4824384;28;97176;-89
2022/09/14 07:12:17;;;;;;;11.27;7.50;;;;;;;18.85;70.28;99260.56;4832976;28;97895;-93
2022/09/14 07:14:43;;;;;;;9.80;6.80;;;;;;;18.87;69.99;99258.63;4861991;28;98457;-90
2022/09/14 07:17:08;;;;;;;11.35;7.30;;;;;;;18.94;70.48;99276.59;4829974;28;100871;-91
2022/09/14 07:19:34;;;;;;;12.48;8.48;;;;;;;18.91;70.56;99268.88;4862993;28;97099;-88
2022/09/14 07:22:00;;;;;;;16.55;6.78;;;;;;;19.14;70.09;99272.25;4853180;28;96868;-90
2022/09/14 07:24:25;;;;;;;14.48;7.85;;;;;;;19.20;69.93;99270.88;4855498;28;102330;-89
2022/09/14 07:26:51;;;;;;;13.15;6.88;;;;;;;19.32;69.54;99263.63;4840087;28;101507;-88
2022/09/14 07:29:17;;;;;;;10.20;6.95;;;;;;;19.41;69.10;99268.16;4848925;28;97471;-89
2022/09/14 07:31:45;;;;;;;13.40;7.97;;;;;;;19.43;68.97;99274.16;4841943;28;97496;-85
2022/09/14 07:34:12;;;;;;;9.60;7.28;;;;;;;19.50;68.76;99267.34;4863924;28;98176;-85
2022/09/14 07:36:38;;;;;;;7.82;7.00;;;;;;;19.55;68.55;99275.78;4843117;28;97325;-84
2022/09/14 07:39:07;;;;;;;12.15;7.10;;;;;;;19.59;68.48;99271.03;4844144;28;97335;-85
2022/09/14 07:41:33;;;;;;;10.80;6.07;;;;;;;19.65;68.30;99270.50;4866389;28;97140;-84
2022/09/14 07:43:59;;;;;;;10.05;6.57;;;;;;;19.70;68.18;99270.13;4858303;28;100607;-84
2022/09/14 07:46:26;;;;;;;13.95;7.20;;;;;;;19.80;68.00;99266.47;4867614;28;97670;-84
2022/09/14 07:48:56;;;;;;;7.25;5.90;;;;;;;19.63;67.73;99232.50;4866462;28;97178;-85
2022/09/14 07:51:23;;;;;;;11.60;6.40;;;;;;;19.95;67.19;99263.44;4842314;28;97510;-85
2022/09/14 07:53:48;;;;;;;9.70;5.82;;;;;;;19.97;67.23;99256.16;4827817;28;101346;-85
2022/09/14 07:56:15;;;;;;;10.07;6.35;;;;;;;19.94;67.10;99272.41;4851328;28;98322;-85
2022/09/14 07:58:41;;;;;;;8.35;5.47;;;;;;;19.98;66.92;99269.31;4844785;28;96725;-85
2022/09/14 08:01:11;;;;;;;11.30;6.07;;;;;;;19.89;66.67;99255.00;4844513;28;97277;-85
2022/09/14 08:03:38;;;;;;;10.07;6.38;;;;;;;20.10;66.37;99272.69;4854462;28;99933;-88
2022/09/14 08:06:13;;;;;;;9.43;6.15;;;;;;;20.23;66.23;99270.63;4856389;28;97926;-85
2022/09/14 08:08:41;;;;;;;10.93;5.95;;;;;;;20.24;65.92;99252.81;4866082;28;99278;-84
2022/09/14 08:11:19;;;;;;;17.20;7.32;;;;;;;20.30;65.64;99249.56;4857468;28;97479;-84
2022/09/14 08:13:48;;;;;;;8.35;5.68;;;;;;;20.53;65.30;99264.31;4853823;28;98024;-83
2022/09/14 08:16:14;;;;;;;12.32;6.38;;;;;;;20.53;65.03;99260.81;4856993;28;97809;-84
2022/09/14 08:18:40;;;;;;;17.30;6.95;;;;;;;20.45;65.49;99264.19;4841703;28;97315;-83
2022/09/14 08:21:08;;;;;;;12.50;5.97;;;;;;;20.28;65.35;99232.91;4842617;28;98035;-85
2022/09/14 08:23:34;;;;;;;12.57;6.40;;;;;;;20.32;65.42;99253.78;4841325;28;98007;-83
2022/09/14 08:26:07;;;;;;;9.35;6.03;;;;;;;20.46;65.21;99267.69;4857193;28;97959;-84
2022/09/14 08:28:33;;;;;;;11.18;5.68;;;;;;;20.29;65.04;99243.41;4850957;28;97191;-84
2022/09/14 08:31:21;;;;;;;8.48;5.28;;;;;;;20.44;64.98;99261.63;4865236;28;98115;-86
2022/09/14 08:33:55;;;;;;;9.88;5.20;;;;;;;20.40;65.19;99263.75;4859223;28;98395;-91
2022/09/14 08:36:22;;;;;;;11.25;5.97;;;;;;;20.31;64.92;99243.28;4860340;28;98270;-92
2022/09/14 08:38:47;;;;;;;8.80;5.38;;;;;;;20.42;65.01;99255.59;4857801;28;97690;-92
2022/09/14 08:41:38;;;;;;;10.93;6.20;;;;;;;20.44;64.65;99250.97;4842612;28;97106;-89
2022/09/14 08:44:29;;;;;;;11.17;6.13;;;;;;;20.39;65.36;99258.56;4875066;28;98213;-87
2022/09/14 08:47:06;;;;;;;10.95;5.82;;;;;;;20.46;64.93;99246.34;4859190;28;96829;-90
2022/09/14 08:49:40;;;;;;;11.32;6.30;;;;;;;20.49;65.04;99248.75;4886919;28;96677;-87
2022/09/14 08:52:24;;;;;;;11.63;5.47;;;;;;;20.44;64.88;99235.00;4867341;28;97314;-84
2022/09/14 08:54:56;;;;;;;6.57;4.93;;;;;;;20.47;64.79;99256.88;4866843;28;97145;-89
2022/09/14 08:57:32;;;;;;;;;;;;;;;20.30;65.27;99246.91;4937195;23;96807;-90
2022/09/14 09:00:11;;;;;;;7.03;4.53;;;;;;;20.34;65.51;99254.50;4939458;23;96661;-89
2022/09/14 09:02:48;;;;;;;9.82;6.03;;;;;;;20.41;65.23;99259.25;4961650;23;98501;-87
2022/09/14 09:05:26;;;;;;;10.55;5.85;;;;;;;20.32;65.79;99255.63;4914302;28;97806;-87
2022/09/14 09:08:07;;;;;;;9.10;5.45;;;;;;;20.31;65.63;99257.44;4896245;28;97713;-88
2022/09/14 09:10:33;;;;;;;8.13;6.05;;;;;;;20.32;65.43;99247.63;4891717;28;97269;-85
2022/09/14 09:13:00;;;;;;;7.70;5.30;;;;;;;20.30;65.48;99250.44;4878274;28;99815;-89
2022/09/14 09:15:28;;;;;;;7.43;5.28;;;;;;;20.36;65.21;99254.34;4883289;28;98097;-85
2022/09/14 09:18:05;;;;;;;11.15;6.78;;;;;;;20.47;64.76;99256.03;4885159;28;97742;-86
2022/09/14 09:20:33;;;;;;;9.07;6.20;;;;;;;20.41;64.94;99233.44;4894466;28;97284;-87
2022/09/14 09:23:07;;;;;;;9.93;5.15;;;;;;;20.67;64.70;99251.56;4896017;28;97518;-85
2022/09/14 09:25:56;;;;;;;9.18;5.72;;;;;;;20.66;64.74;99257.88;4892747;28;98316;-85
2022/09/14 09:28:24;;;;;;;9.05;5.88;;;;;;;20.70;64.58;99252.09;4875788;28;98476;-87
2022/09/14 09:30:50;;;;;;;12.57;5.63;;;;;;;20.74;64.43;99252.66;4882255;28;97483;-87
2022/09/14 09:33:21;;;;;;;8.00;5.60;;;;;;;20.79;64.57;99251.25;4885127;28;97080;-86
2022/09/14 09:36:13;;;;;;;13.07;6.55;;;;;;;20.87;64.30;99253.19;4890913;28;99548;-85
2022/09/14 09:38:39;;;;;;;10.40;6.18;;;;;;;21.01;64.23;99234.06;4871754;28;101124;-87
2022/09/14 09:41:07;;;;;;;11.43;6.05;;;;;;;21.08;64.04;99223.66;4873352;28;96766;-86
2022/09/14 09:43:33;;;;;;;9.13;6.45;;;;;;;21.25;62.60;99240.72;4898923;28;96883;-86
2022/09/14 09:46:01;;;;;;;11.13;5.88;;;;;;;21.22;62.84;99241.03;4895285;28;97935;-88
2022/09/14 09:48:29;;;;;;;7.07;5.10;;;;;;;21.52;62.42;99247.94;4878849;28;97912;-86
2022/09/14 09:51:09;;;;;;;7.38;5.30;;;;;;;21.57;61.56;99243.00;4892565;28;97373;-86
2022/09/14 09:53:47;;;;;;;9.82;6.00;;;;;;;21.78;61.48;99244.56;4890785;28;96803;-88
2022/09/14 09:56:26;;;;;;;7.32;5.45;;;;;;;21.88;60.92;99237.34;4878282;28;101714;-87
2022/09/14 09:58:52;;;;;;;10.55;5.60;;;;;;;21.94;60.80;99234.06;4873147;28;100327;-96
2022/09/14 10:01:30;;;;;;;8.93;5.13;;;;;;;21.96;60.88;99240.09;4858197;28;97393;-92
2022/09/14 10:04:13;;;;;;;8.57;6.10;;;;;;;21.92;60.19;99242.22;4855117;28;96971;-92
2022/09/14 10:06:46;;;;;;;8.13;6.10;;;;;;;21.57;60.34;99229.66;4877640;28;100847;-90
2022/09/14 10:09:14;;;;;;;12.02;5.60;;;;;;;21.76;60.86;99226.03;4888126;28;97841;-87
2022/09/14 10:11:40;;;;;;;8.18;5.13;;;;;;;21.76;61.03;99225.19;4875274;28;97409;-86
2022/09/14 10:14:20;;;;;;;6.75;5.07;;;;;;;21.80;60.97;99231.91;4875395;28;97867;-93
2022/09/14 10:16:46;;;;;;;7.10;4.68;;;;;;;21.88;61.22;99230.19;4877817;28;99531;-90
2022/09/14 10:19:21;;;;;;;11.98;5.50;;;;;;;21.84;61.00;99225.28;4856948;28;100477;-94
2022/09/14 10:22:25;;;;;;;12.60;5.90;;;;;;;21.73;60.52;99221.00;4875182;28;96957;-92
2022/09/14 10:25:12;;;;;;;9.70;5.47;;;;;;;21.54;61.10;99213.94;4887156;28;96973;-83
2022/09/14 10:27:44;;;;;;;11.77;6.05;;;;;;;21.60;61.24;99231.19;4875330;28;101065;-82
2022/09/14 10:30:19;;;;;;;12.23;5.53;;;;;;;21.57;61.37;99226.16;4885659;28;100081;-83
2022/09/14 10:33:01;;;;;;;9.80;5.60;;;;;;;21.62;61.81;99219.38;4876577;28;97694;-78
2022/09/14 10:35:48;;;;;;;9.95;4.80;;;;;;;21.33;61.60;99170.63;4856443;28;97259;-77
2022/09/14 10:38:30;;;;;;;8.15;4.70;;;;;;;21.65;61.80;99226.25;4869685;28;100764;-80
2022/09/14 10:41:09;;;;;;;8.13;4.85;;;;;;;21.61;61.61;99222.19;4885134;28;100899;-79
2022/09/14 10:43:42;;;;;;;9.85;5.18;;;;;;;21.60;61.53;99226.69;4859204;28;97157;-80
2022/09/14 10:46:12;;;;;;;12.45;5.70;;;;;;;21.47;61.55;99228.88;4883233;28;97328;-79
2022/09/14 10:49:12;;;;;;;8.90;4.95;;;;;;;21.52;61.96;99221.25;4879783;28;97883;-79
2022/09/14 10:51:41;;;;;;;8.75;5.07;;;;;;;21.51;61.78;99216.06;4859858;28;100803;-79
2022/09/14 10:54:19;;;;;;;10.38;5.63;;;;;;;21.48;61.52;99210.03;4894047;28;97360;-80
2022/09/14 10:57:13;;;;;;;11.45;5.35;;;;;;;21.37;61.21;99207.56;4895347;28;97410;-79
2022/09/14 10:59:52;;;;;;;12.10;5.22;;;;;;;21.26;61.29;99210.38;4904377;28;98508;-79
2022/09/14 11:03:14;;;;;;;14.10;5.93;;;;;;;21.23;60.89;99203.53;4876196;28;100772;-80
2022/09/14 11:05:54;;;;;;;7.60;5.00;;;;;;;21.36;61.06;99194.34;4815072;29;97177;-80
2022/09/14 11:08:45;;;;;;;8.07;5.32;;;;;;;21.29;61.43;99194.06;4817512;29;96830;-80
2022/09/14 11:11:22;;;;;;;12.77;6.43;;;;;;;21.30;60.69;99197.59;4800863;29;97693;-79
2022/09/14 11:13:56;;;;;;;8.27;5.72;;;;;;;21.30;61.13;99198.44;4814640;29;98534;-78
2022/09/14 11:16:59;;;;;;;13.25;5.72;;;;;;;21.37;61.08;99196.03;4827565;29;97408;-78
2022/09/14 11:19:42;;;;;;;8.30;5.43;;;;;;;21.33;60.96;99195.47;4801204;29;97609;-78
2022/09/14 11:22:28;;;;;;;18.52;5.80;;;;;;;21.20;61.17;99192.28;4809721;29;101031;-83
2022/09/14 11:24:58;;;;;;;7.95;4.82;;;;;;;21.16;61.64;99194.41;4824340;29;98298;-88
2022/09/14 11:27:38;;;;;;;5.95;4.57;;;;;;;21.06;61.90;99198.97;4810503;29;98614;-83
2022/09/14 11:30:18;;;;;;;11.15;4.53;;;;;;;20.93;62.32;99185.94;4801858;29;97516;-82
2022/09/14 11:32:52;;;;;;;11.80;5.88;;;;;;;20.92;62.50;99186.09;4787186;29;101539;-88
2022/09/14 11:35:44;;;;;;;10.55;5.30;;;;;;;20.84;62.74;99184.16;4817564;28;98668;-85
2022/09/14 11:38:19;;;;;;;10.63;5.25;;;;;;;20.71;63.01;99143.63;4876232;28;96799;-85
2022/09/14 11:41:13;;;;;;;11.20;4.65;;;;;;;20.89;62.92;99173.91;4895783;28;97868;-83
2022/09/14 11:43:49;;;;;;;10.52;4.40;;;;;;;21.00;62.82;99171.06;4885617;28;101852;-85
2022/09/14 11:46:19;;;;;;;10.50;4.68;;;;;;;21.05;62.96;99167.94;4878640;28;101583;-89